createdAt,value
2022-10-04T00:01:10.053Z,1.58
2022-10-04T00:06:17.729Z,2.05
2022-10-04T00:11:32.124Z,1.95
2022-10-04T00:16:38.339Z,1.75
2022-10-04T00:21:56.248Z,1.65
2022-10-04T00:27:20.694Z,1.60
2022-10-04T00:32:27.528Z,1.90
2022-10-04T00:37:59.108Z,1.90
2022-10-04T00:43:21.328Z,1.70
2022-10-04T00:48:42.128Z,1.75
2022-10-04T00:53:58.782Z,1.80
2022-10-04T00:59:05.573Z,1.30
2022-10-04T01:04:21.558Z,2.10
2022-10-04T01:09:23.848Z,1.60
2022-10-04T01:14:42.267Z,1.95
2022-10-04T01:19:51.222Z,1.77
2022-10-04T01:24:52.694Z,1.90
2022-10-04T01:29:54.246Z,1.77
2022-10-04T01:34:56.246Z,1.80
2022-10-04T01:39:58.372Z,1.73
2022-10-04T01:45:07.988Z,2.13
2022-10-04T01:50:15.984Z,1.55
2022-10-04T01:55:21.304Z,1.60
2022-10-04T02:00:24.459Z,1.83
2022-10-04T02:05:33.522Z,1.88
2022-10-04T02:10:39.813Z,1.92
2022-10-04T02:15:46.021Z,1.83
2022-10-04T02:20:49.544Z,1.90
2022-10-04T02:25:51.978Z,1.80
2022-10-04T02:31:12.147Z,1.77
2022-10-04T02:36:15.816Z,1.90
2022-10-04T02:41:27.857Z,1.80
2022-10-04T02:46:35.512Z,1.98
2022-10-04T02:51:38.677Z,2.05
2022-10-04T02:56:40.453Z,1.90
2022-10-04T03:01:51.177Z,2.08
2022-10-04T03:06:53.287Z,1.70
2022-10-04T03:11:56.045Z,1.60
2022-10-04T03:17:01.222Z,1.77
2022-10-04T03:22:07.653Z,1.90
2022-10-04T03:27:09.918Z,1.77
2022-10-04T03:32:14.673Z,1.77
2022-10-04T03:37:17.286Z,2.15
2022-10-04T03:42:39.022Z,2.25
2022-10-04T03:47:43.937Z,1.83
2022-10-04T03:53:08.561Z,1.80
2022-10-04T03:58:14.486Z,1.52
2022-10-04T04:03:19.119Z,1.90
2022-10-04T04:08:28.687Z,1.90
2022-10-04T04:13:58.615Z,2.15
2022-10-04T04:19:02.819Z,2.13
2022-10-04T04:24:08.651Z,2.28
2022-10-04T04:29:24.882Z,1.75
2022-10-04T04:34:35.541Z,2.47
2022-10-04T04:39:37.403Z,1.83
2022-10-04T04:44:47.398Z,1.98
2022-10-04T04:49:49.909Z,1.90
2022-10-04T04:54:53.044Z,1.98
2022-10-04T04:59:58.551Z,1.90
2022-10-04T05:05:20.172Z,2.50
2022-10-04T05:10:33.131Z,2.40
2022-10-04T05:15:37.240Z,2.00
2022-10-04T05:20:38.971Z,2.35
2022-10-04T05:25:40.635Z,2.50
2022-10-04T05:30:48.691Z,1.95
2022-10-04T05:36:24.384Z,2.17
2022-10-04T05:41:33.715Z,3.00
2022-10-04T05:46:35.437Z,2.25
2022-10-04T05:51:49.646Z,2.58
2022-10-04T05:56:51.041Z,1.95
2022-10-04T06:02:25.232Z,2.70
2022-10-04T06:07:38.643Z,2.38
2022-10-04T06:12:50.743Z,2.67
2022-10-04T06:18:09.407Z,2.08
2022-10-04T06:23:14.091Z,2.15
2022-10-04T06:28:15.566Z,2.38
2022-10-04T06:34:05.486Z,2.20
2022-10-04T06:39:20.092Z,2.15
2022-10-04T06:44:51.096Z,2.50
2022-10-04T06:50:05.738Z,2.28
2022-10-04T06:55:15.591Z,2.38
2022-10-04T07:00:24.469Z,2.67
2022-10-04T07:05:32.331Z,2.20
2022-10-04T07:10:54.044Z,2.20
2022-10-04T07:15:59.347Z,1.90
2022-10-04T07:21:11.718Z,2.25
2022-10-04T07:26:43.793Z,2.28
2022-10-04T07:31:46.906Z,2.80
2022-10-04T07:36:50.333Z,2.50
2022-10-04T07:41:57.660Z,2.25
2022-10-04T07:47:20.250Z,2.33
2022-10-04T07:53:13.033Z,1.98
2022-10-04T07:58:54.337Z,2.17
2022-10-04T08:04:14.131Z,2.00
2022-10-04T08:09:46.865Z,1.95
2022-10-04T08:15:14.418Z,2.13
2022-10-04T08:20:22.024Z,1.90
2022-10-04T08:25:27.768Z,2.20
2022-10-04T08:30:38.542Z,1.83
2022-10-04T08:35:46.151Z,2.22
2022-10-04T08:41:25.868Z,1.77
2022-10-04T08:46:46.908Z,2.10
2022-10-04T08:52:12.730Z,1.88
2022-10-04T08:57:54.284Z,2.13
2022-10-04T09:03:11.587Z,2.47
2022-10-04T09:08:31.114Z,2.13
2022-10-04T09:13:54.633Z,1.88
2022-10-04T09:19:34.087Z,2.30
2022-10-04T09:25:09.077Z,2.38
2022-10-04T09:30:21.330Z,2.47
2022-10-04T09:35:56.641Z,2.40
2022-10-04T09:41:03.695Z,2.40
2022-10-04T09:46:12.033Z,2.40
2022-10-04T09:51:30.574Z,2.38
2022-10-04T09:56:47.113Z,2.22
2022-10-04T10:02:00.601Z,2.35
2022-10-04T10:07:23.738Z,2.10
2022-10-04T10:12:54.574Z,2.38
2022-10-04T10:18:21.830Z,1.63
2022-10-04T10:23:30.373Z,2.05
2022-10-04T10:29:02.627Z,2.00
2022-10-04T10:34:52.351Z,1.90
2022-10-04T10:40:27.996Z,1.75
2022-10-04T10:45:35.627Z,1.67
2022-10-04T10:51:03.293Z,1.80
2022-10-04T10:56:08.571Z,1.80
2022-10-04T11:01:19.147Z,1.73
2022-10-04T11:06:38.865Z,1.77
2022-10-04T11:12:06.091Z,1.60
2022-10-04T11:17:25.608Z,1.90
2022-10-04T11:23:03.739Z,1.52
2022-10-04T11:28:18.451Z,1.42
2022-10-04T11:33:39.031Z,1.90
2022-10-04T11:39:03.527Z,1.52
2022-10-04T11:44:47.476Z,1.50
2022-10-04T11:49:58.974Z,1.77
2022-10-04T11:55:23.846Z,1.85
2022-10-04T12:00:29.352Z,2.25
2022-10-04T12:05:40.721Z,1.85
2022-10-04T12:10:43.927Z,1.58
2022-10-04T12:16:13.030Z,1.70
2022-10-04T12:21:28.902Z,1.30
2022-10-04T12:26:52.677Z,1.38
2022-10-04T12:32:00.362Z,1.40
2022-10-04T12:37:17.048Z,2.22
2022-10-04T12:42:35.068Z,2.15
2022-10-04T12:47:51.898Z,2.50
2022-10-04T12:52:57.028Z,1.90
2022-10-04T12:58:09.980Z,1.80
2022-10-04T13:03:23.965Z,2.05
2022-10-04T13:08:50.191Z,1.88
2022-10-04T13:13:59.597Z,1.80
2022-10-04T13:19:33.592Z,1.92
2022-10-04T13:25:16.294Z,1.67
2022-10-04T13:30:27.674Z,1.60
2022-10-04T13:35:37.057Z,1.98
2022-10-04T13:40:41.321Z,1.80
2022-10-04T13:45:52.982Z,1.83
2022-10-04T13:51:32.362Z,1.67
2022-10-04T13:57:11.607Z,1.60
2022-10-04T14:02:43.873Z,1.25
2022-10-04T14:08:23.063Z,1.38
2022-10-04T14:13:41.098Z,1.42
2022-10-04T14:19:14.154Z,3.05
2022-10-04T14:24:21.671Z,2.17
2022-10-04T14:29:32.497Z,1.30
2022-10-04T14:34:39.735Z,1.38
2022-10-04T14:39:59.878Z,1.40
2022-10-04T14:45:37.822Z,1.80
2022-10-04T14:50:51.214Z,1.30
2022-10-04T14:56:06.317Z,1.10
2022-10-04T15:01:13.582Z,1.10
2022-10-04T15:06:26.910Z,1.50
2022-10-04T15:11:40.018Z,1.20
2022-10-04T15:16:58.210Z,1.45
2022-10-04T15:22:22.339Z,1.20
2022-10-04T15:27:40.584Z,1.90
2022-10-04T15:32:44.863Z,1.70
2022-10-04T15:38:19.229Z,1.48
2022-10-04T15:43:27.570Z,1.20
2022-10-04T15:48:50.624Z,1.00
2022-10-04T15:53:55.242Z,1.30
2022-10-04T15:59:08.913Z,0.90
2022-10-04T16:04:46.034Z,1.00
2022-10-04T16:09:55.048Z,1.17
2022-10-04T16:15:19.794Z,1.13
2022-10-04T16:20:36.457Z,1.20
2022-10-04T16:25:39.042Z,1.40
2022-10-04T16:31:08.327Z,1.17
2022-10-04T16:36:13.958Z,1.25
2022-10-04T16:41:32.021Z,1.35
2022-10-04T16:46:45.023Z,1.10
2022-10-04T16:52:14.761Z,1.30
2022-10-04T16:57:22.461Z,1.50
2022-10-04T17:02:51.662Z,1.40
2022-10-04T17:08:22.351Z,1.48
2022-10-04T17:13:52.939Z,1.70
2022-10-04T17:19:30.379Z,2.13
2022-10-04T17:24:59.462Z,2.60
2022-10-04T17:30:21.948Z,2.38
2022-10-04T17:35:48.081Z,2.38
2022-10-04T17:41:08.855Z,1.92
2022-10-04T17:46:22.119Z,2.33
2022-10-04T17:51:42.319Z,1.88
2022-10-04T17:56:48.864Z,2.40
2022-10-04T18:01:55.555Z,2.33
2022-10-04T18:07:01.970Z,2.92
2022-10-04T18:12:36.937Z,3.20
2022-10-04T18:17:42.105Z,3.40
2022-10-04T18:22:48.700Z,3.47
2022-10-04T18:28:10.625Z,3.63
2022-10-04T18:33:26.473Z,3.78
2022-10-04T18:38:29.253Z,3.75
2022-10-04T18:43:33.788Z,3.55
2022-10-04T18:48:38.161Z,3.35
2022-10-04T18:53:44.718Z,3.92
2022-10-04T18:59:31.695Z,4.10
2022-10-04T19:04:49.730Z,3.75
2022-10-04T19:09:58.090Z,3.70
2022-10-04T19:15:08.351Z,4.05
2022-10-04T19:20:23.881Z,3.70
2022-10-04T19:25:35.569Z,4.20
2022-10-04T19:31:00.611Z,3.67
2022-10-04T19:36:16.898Z,3.90
2022-10-04T19:41:48.943Z,3.53
2022-10-04T19:46:56.062Z,3.70
2022-10-04T19:52:12.643Z,3.47
2022-10-04T19:57:15.110Z,3.60
2022-10-04T20:02:16.749Z,3.28
2022-10-04T20:07:23.233Z,3.40
2022-10-04T20:12:36.487Z,3.20
2022-10-04T20:17:40.165Z,3.83
2022-10-04T20:22:51.554Z,3.30
2022-10-04T20:27:53.015Z,3.20
2022-10-04T20:32:55.785Z,3.28
2022-10-04T20:38:19.983Z,3.15
2022-10-04T20:43:19.205Z,3.38
2022-10-04T20:48:22.771Z,3.20
2022-10-04T20:53:25.886Z,3.70
2022-10-04T20:58:32.731Z,3.80
2022-10-04T21:03:36.615Z,3.30
2022-10-04T21:08:38.390Z,3.15
2022-10-04T21:13:56.598Z,3.47
2022-10-04T21:19:33.505Z,3.58
2022-10-04T21:24:39.749Z,3.25
2022-10-04T21:29:41.217Z,3.38
2022-10-04T21:34:53.127Z,3.33
2022-10-04T21:39:56.074Z,3.70
2022-10-04T21:44:57.691Z,3.70
2022-10-04T21:49:59.219Z,3.65
2022-10-04T21:55:00.760Z,3.83
2022-10-04T22:00:02.426Z,3.47
2022-10-04T22:05:13.805Z,3.20
2022-10-04T22:10:15.400Z,3.75
2022-10-04T22:15:16.969Z,3.33
2022-10-04T22:20:18.628Z,3.40
2022-10-04T22:25:22.024Z,3.40
2022-10-04T22:30:24.965Z,3.08
2022-10-04T22:35:29.287Z,3.60
2022-10-04T22:40:30.784Z,3.60
2022-10-04T22:45:34.925Z,3.50
2022-10-04T22:50:37.340Z,3.05
2022-10-04T22:55:40.919Z,3.33
2022-10-04T23:00:43.451Z,3.10
2022-10-04T23:05:45.311Z,3.35
2022-10-04T23:10:47.035Z,3.25
2022-10-04T23:15:48.682Z,3.15
2022-10-04T23:20:55.819Z,3.03
2022-10-04T23:25:57.314Z,3.28
2022-10-04T23:31:04.399Z,2.72
2022-10-04T23:36:11.057Z,2.88
2022-10-04T23:41:12.574Z,2.95
2022-10-04T23:46:18.760Z,2.80
2022-10-04T23:51:20.632Z,2.50
2022-10-04T23:56:25.047Z,2.70
